sensor_id;sensor_type;location;lat;lon;timestamp;P1;durP1;ratioP1;P2;durP2;ratioP2
38805;SDS011;25635;51.146;17.162;2023-02-18T00:01:12;4.80;;;1.20;;
38805;SDS011;25635;51.146;17.162;2023-02-18T00:03:40;4.10;;;1.40;;
38805;SDS011;25635;51.146;17.162;2023-02-18T00:06:10;3.60;;;0.90;;
38805;SDS011;25635;51.146;17.162;2023-02-18T00:08:38;3.60;;;1.10;;
38805;SDS011;25635;51.146;17.162;2023-02-18T00:11:05;4.70;;;1.30;;
38805;SDS011;25635;51.146;17.162;2023-02-18T00:13:31;4.60;;;1.20;;
38805;SDS011;25635;51.146;17.162;2023-02-18T00:16:01;4.10;;;1.00;;
38805;SDS011;25635;51.146;17.162;2023-02-18T00:18:28;3.60;;;1.00;;
38805;SDS011;25635;51.146;17.162;2023-02-18T00:20:54;4.80;;;0.90;;
38805;SDS011;25635;51.146;17.162;2023-02-18T00:23:20;1.50;;;0.70;;
38805;SDS011;25635;51.146;17.162;2023-02-18T00:25:47;4.50;;;1.00;;
38805;SDS011;25635;51.146;17.162;2023-02-18T00:28:13;2.50;;;0.80;;
38805;SDS011;25635;51.146;17.162;2023-02-18T00:30:42;4.60;;;1.70;;
38805;SDS011;25635;51.146;17.162;2023-02-18T00:33:08;2.30;;;0.70;;
38805;SDS011;25635;51.146;17.162;2023-02-18T00:35:34;3.00;;;0.70;;
38805;SDS011;25635;51.146;17.162;2023-02-18T00:38:01;3.10;;;0.80;;
38805;SDS011;25635;51.146;17.162;2023-02-18T00:40:27;4.10;;;1.00;;
38805;SDS011;25635;51.146;17.162;2023-02-18T00:42:53;2.80;;;0.70;;
38805;SDS011;25635;51.146;17.162;2023-02-18T00:45:19;2.20;;;0.70;;
38805;SDS011;25635;51.146;17.162;2023-02-18T00:47:45;3.70;;;0.70;;
38805;SDS011;25635;51.146;17.162;2023-02-18T00:50:11;4.30;;;0.80;;
38805;SDS011;25635;51.146;17.162;2023-02-18T00:52:37;2.70;;;0.80;;
38805;SDS011;25635;51.146;17.162;2023-02-18T00:55:03;2.60;;;0.60;;
38805;SDS011;25635;51.146;17.162;2023-02-18T00:57:29;2.80;;;0.80;;
38805;SDS011;25635;51.146;17.162;2023-02-18T00:59:56;4.00;;;0.80;;
38805;SDS011;25635;51.146;17.162;2023-02-18T01:02:22;4.40;;;0.70;;
38805;SDS011;25635;51.146;17.162;2023-02-18T01:04:48;3.30;;;0.70;;
38805;SDS011;25635;51.146;17.162;2023-02-18T01:07:14;3.80;;;1.00;;
38805;SDS011;25635;51.146;17.162;2023-02-18T01:09:40;5.10;;;0.90;;
38805;SDS011;25635;51.146;17.162;2023-02-18T01:12:06;4.00;;;0.90;;
38805;SDS011;25635;51.146;17.162;2023-02-18T01:14:32;4.60;;;0.90;;
38805;SDS011;25635;51.146;17.162;2023-02-18T01:16:58;3.20;;;0.90;;
38805;SDS011;25635;51.146;17.162;2023-02-18T01:19:24;3.20;;;0.70;;
38805;SDS011;25635;51.146;17.162;2023-02-18T01:21:50;3.40;;;0.60;;
38805;SDS011;25635;51.146;17.162;2023-02-18T01:24:16;3.00;;;0.70;;
38805;SDS011;25635;51.146;17.162;2023-02-18T01:26:42;2.50;;;0.60;;
38805;SDS011;25635;51.146;17.162;2023-02-18T01:29:08;3.50;;;0.70;;
38805;SDS011;25635;51.146;17.162;2023-02-18T01:31:34;3.40;;;0.80;;
38805;SDS011;25635;51.146;17.162;2023-02-18T01:34:00;3.70;;;0.90;;
38805;SDS011;25635;51.146;17.162;2023-02-18T01:36:26;4.20;;;0.90;;
38805;SDS011;25635;51.146;17.162;2023-02-18T01:38:52;3.80;;;0.80;;
38805;SDS011;25635;51.146;17.162;2023-02-18T01:41:18;3.00;;;0.80;;
38805;SDS011;25635;51.146;17.162;2023-02-18T01:43:44;4.10;;;0.80;;
38805;SDS011;25635;51.146;17.162;2023-02-18T01:46:15;6.10;;;1.00;;
38805;SDS011;25635;51.146;17.162;2023-02-18T01:51:30;3.10;;;0.80;;
38805;SDS011;25635;51.146;17.162;2023-02-18T01:56:39;4.50;;;1.00;;
38805;SDS011;25635;51.146;17.162;2023-02-18T01:59:17;5.20;;;0.90;;
38805;SDS011;25635;51.146;17.162;2023-02-18T02:01:50;3.60;;;0.90;;
38805;SDS011;25635;51.146;17.162;2023-02-18T02:04:18;5.10;;;1.10;;
38805;SDS011;25635;51.146;17.162;2023-02-18T02:06:45;5.00;;;1.10;;
38805;SDS011;25635;51.146;17.162;2023-02-18T02:09:12;3.70;;;0.70;;
38805;SDS011;25635;51.146;17.162;2023-02-18T02:17:24;3.10;;;0.80;;
38805;SDS011;25635;51.146;17.162;2023-02-18T02:34:03;4.30;;;0.70;;
38805;SDS011;25635;51.146;17.162;2023-02-18T02:36:46;4.10;;;0.80;;
38805;SDS011;25635;51.146;17.162;2023-02-18T02:42:45;4.00;;;1.00;;
38805;SDS011;25635;51.146;17.162;2023-02-18T02:48:00;2.90;;;0.80;;
38805;SDS011;25635;51.146;17.162;2023-02-18T02:50:39;4.50;;;1.10;;
38805;SDS011;25635;51.146;17.162;2023-02-18T02:53:33;5.00;;;0.80;;
38805;SDS011;25635;51.146;17.162;2023-02-18T02:55:59;4.40;;;1.00;;
38805;SDS011;25635;51.146;17.162;2023-02-18T02:58:25;3.70;;;0.80;;
38805;SDS011;25635;51.146;17.162;2023-02-18T03:04:27;4.90;;;0.90;;
38805;SDS011;25635;51.146;17.162;2023-02-18T03:17:45;3.00;;;0.80;;
38805;SDS011;25635;51.146;17.162;2023-02-18T03:22:56;4.50;;;0.90;;
38805;SDS011;25635;51.146;17.162;2023-02-18T03:25:27;3.70;;;1.00;;
38805;SDS011;25635;51.146;17.162;2023-02-18T03:27:56;4.60;;;1.00;;
38805;SDS011;25635;51.146;17.162;2023-02-18T03:30:27;4.60;;;1.20;;
38805;SDS011;25635;51.146;17.162;2023-02-18T03:32:59;4.60;;;1.00;;
38805;SDS011;25635;51.146;17.162;2023-02-18T03:35:29;5.30;;;1.10;;
38805;SDS011;25635;51.146;17.162;2023-02-18T03:37:58;4.90;;;0.90;;
38805;SDS011;25635;51.146;17.162;2023-02-18T03:40:30;3.60;;;1.00;;
38805;SDS011;25635;51.146;17.162;2023-02-18T03:42:57;4.80;;;1.00;;
38805;SDS011;25635;51.146;17.162;2023-02-18T03:45:24;4.30;;;0.90;;
38805;SDS011;25635;51.146;17.162;2023-02-18T03:47:51;5.80;;;1.10;;
38805;SDS011;25635;51.146;17.162;2023-02-18T03:50:18;5.10;;;1.30;;
38805;SDS011;25635;51.146;17.162;2023-02-18T03:52:44;3.60;;;0.80;;
38805;SDS011;25635;51.146;17.162;2023-02-18T03:55:10;5.00;;;0.90;;
38805;SDS011;25635;51.146;17.162;2023-02-18T03:57:36;5.10;;;1.10;;
38805;SDS011;25635;51.146;17.162;2023-02-18T04:00:03;6.30;;;0.80;;
38805;SDS011;25635;51.146;17.162;2023-02-18T04:02:31;3.20;;;0.90;;
38805;SDS011;25635;51.146;17.162;2023-02-18T04:04:58;3.50;;;0.90;;
38805;SDS011;25635;51.146;17.162;2023-02-18T04:07:24;4.30;;;1.00;;
38805;SDS011;25635;51.146;17.162;2023-02-18T04:09:51;5.60;;;1.00;;
38805;SDS011;25635;51.146;17.162;2023-02-18T04:12:17;3.30;;;1.00;;
38805;SDS011;25635;51.146;17.162;2023-02-18T04:14:43;3.90;;;0.90;;
38805;SDS011;25635;51.146;17.162;2023-02-18T04:17:09;5.10;;;1.00;;
38805;SDS011;25635;51.146;17.162;2023-02-18T04:19:35;6.90;;;1.00;;
38805;SDS011;25635;51.146;17.162;2023-02-18T04:22:01;5.00;;;1.00;;
38805;SDS011;25635;51.146;17.162;2023-02-18T04:24:27;3.10;;;0.70;;
38805;SDS011;25635;51.146;17.162;2023-02-18T04:26:54;5.10;;;0.90;;
38805;SDS011;25635;51.146;17.162;2023-02-18T04:29:20;3.90;;;0.90;;
38805;SDS011;25635;51.146;17.162;2023-02-18T04:31:46;4.30;;;0.90;;
38805;SDS011;25635;51.146;17.162;2023-02-18T04:34:12;3.60;;;0.90;;
38805;SDS011;25635;51.146;17.162;2023-02-18T04:36:38;4.10;;;0.60;;
38805;SDS011;25635;51.146;17.162;2023-02-18T04:39:04;3.10;;;0.90;;
38805;SDS011;25635;51.146;17.162;2023-02-18T04:41:30;4.50;;;1.20;;
38805;SDS011;25635;51.146;17.162;2023-02-18T04:43:56;5.00;;;1.00;;
38805;SDS011;25635;51.146;17.162;2023-02-18T04:46:24;4.00;;;0.90;;
38805;SDS011;25635;51.146;17.162;2023-02-18T04:48:50;4.20;;;0.90;;
38805;SDS011;25635;51.146;17.162;2023-02-18T04:51:16;6.10;;;1.20;;
38805;SDS011;25635;51.146;17.162;2023-02-18T04:53:42;4.30;;;1.30;;
38805;SDS011;25635;51.146;17.162;2023-02-18T04:56:08;3.50;;;0.70;;
38805;SDS011;25635;51.146;17.162;2023-02-18T04:58:34;5.60;;;1.00;;
38805;SDS011;25635;51.146;17.162;2023-02-18T05:01:01;4.80;;;0.90;;
38805;SDS011;25635;51.146;17.162;2023-02-18T05:03:30;5.20;;;1.20;;
38805;SDS011;25635;51.146;17.162;2023-02-18T05:05:57;4.20;;;1.10;;
38805;SDS011;25635;51.146;17.162;2023-02-18T05:08:24;5.90;;;0.80;;
38805;SDS011;25635;51.146;17.162;2023-02-18T05:10:50;4.10;;;0.80;;
38805;SDS011;25635;51.146;17.162;2023-02-18T05:13:16;3.80;;;0.90;;
38805;SDS011;25635;51.146;17.162;2023-02-18T05:15:42;3.50;;;0.70;;
38805;SDS011;25635;51.146;17.162;2023-02-18T05:18:08;4.60;;;1.00;;
38805;SDS011;25635;51.146;17.162;2023-02-18T05:20:35;3.60;;;0.70;;
38805;SDS011;25635;51.146;17.162;2023-02-18T05:23:01;4.00;;;0.90;;
38805;SDS011;25635;51.146;17.162;2023-02-18T05:25:27;4.30;;;0.90;;
38805;SDS011;25635;51.146;17.162;2023-02-18T05:27:53;4.60;;;1.00;;
38805;SDS011;25635;51.146;17.162;2023-02-18T05:30:19;5.40;;;1.10;;
38805;SDS011;25635;51.146;17.162;2023-02-18T05:32:46;4.60;;;1.00;;
38805;SDS011;25635;51.146;17.162;2023-02-18T05:35:12;3.60;;;1.00;;
38805;SDS011;25635;51.146;17.162;2023-02-18T05:37:38;5.00;;;1.00;;
38805;SDS011;25635;51.146;17.162;2023-02-18T05:40:05;4.90;;;0.80;;
38805;SDS011;25635;51.146;17.162;2023-02-18T05:42:31;3.60;;;1.10;;
38805;SDS011;25635;51.146;17.162;2023-02-18T05:44:58;4.50;;;0.90;;
38805;SDS011;25635;51.146;17.162;2023-02-18T05:47:24;4.20;;;0.90;;
38805;SDS011;25635;51.146;17.162;2023-02-18T05:49:50;4.40;;;0.90;;
38805;SDS011;25635;51.146;17.162;2023-02-18T05:52:16;4.70;;;0.90;;
38805;SDS011;25635;51.146;17.162;2023-02-18T05:54:42;2.60;;;0.70;;
38805;SDS011;25635;51.146;17.162;2023-02-18T05:57:09;4.60;;;1.00;;
38805;SDS011;25635;51.146;17.162;2023-02-18T05:59:38;3.10;;;0.90;;
38805;SDS011;25635;51.146;17.162;2023-02-18T06:02:04;4.40;;;1.30;;
38805;SDS011;25635;51.146;17.162;2023-02-18T06:04:30;7.90;;;1.00;;
38805;SDS011;25635;51.146;17.162;2023-02-18T06:06:56;5.00;;;1.00;;
38805;SDS011;25635;51.146;17.162;2023-02-18T06:09:22;7.00;;;1.10;;
38805;SDS011;25635;51.146;17.162;2023-02-18T06:11:48;4.30;;;0.80;;
38805;SDS011;25635;51.146;17.162;2023-02-18T06:14:15;5.00;;;0.90;;
38805;SDS011;25635;51.146;17.162;2023-02-18T06:16:41;5.70;;;1.00;;
38805;SDS011;25635;51.146;17.162;2023-02-18T06:19:07;4.30;;;1.10;;
38805;SDS011;25635;51.146;17.162;2023-02-18T06:21:33;4.10;;;0.60;;
38805;SDS011;25635;51.146;17.162;2023-02-18T06:24:00;6.20;;;1.20;;
38805;SDS011;25635;51.146;17.162;2023-02-18T06:26:26;5.00;;;0.90;;
38805;SDS011;25635;51.146;17.162;2023-02-18T06:28:52;4.90;;;0.80;;
38805;SDS011;25635;51.146;17.162;2023-02-18T06:31:18;4.20;;;0.70;;
38805;SDS011;25635;51.146;17.162;2023-02-18T06:33:44;4.90;;;0.60;;
38805;SDS011;25635;51.146;17.162;2023-02-18T06:36:10;3.90;;;0.70;;
38805;SDS011;25635;51.146;17.162;2023-02-18T06:38:38;3.20;;;0.80;;
38805;SDS011;25635;51.146;17.162;2023-02-18T06:41:05;5.20;;;0.90;;
38805;SDS011;25635;51.146;17.162;2023-02-18T06:43:32;4.20;;;0.90;;
38805;SDS011;25635;51.146;17.162;2023-02-18T06:45:58;4.40;;;1.00;;
38805;SDS011;25635;51.146;17.162;2023-02-18T06:48:24;3.50;;;0.80;;
38805;SDS011;25635;51.146;17.162;2023-02-18T06:50:51;5.10;;;0.90;;
38805;SDS011;25635;51.146;17.162;2023-02-18T06:53:17;4.50;;;0.70;;
38805;SDS011;25635;51.146;17.162;2023-02-18T06:55:43;3.90;;;1.10;;
38805;SDS011;25635;51.146;17.162;2023-02-18T06:58:10;5.10;;;1.00;;
38805;SDS011;25635;51.146;17.162;2023-02-18T07:00:37;3.40;;;0.70;;
38805;SDS011;25635;51.146;17.162;2023-02-18T07:03:04;5.80;;;1.00;;
38805;SDS011;25635;51.146;17.162;2023-02-18T07:05:30;5.00;;;0.90;;
38805;SDS011;25635;51.146;17.162;2023-02-18T07:07:57;5.50;;;1.30;;
38805;SDS011;25635;51.146;17.162;2023-02-18T07:10:23;4.10;;;0.90;;
38805;SDS011;25635;51.146;17.162;2023-02-18T07:12:49;3.40;;;0.80;;
38805;SDS011;25635;51.146;17.162;2023-02-18T07:15:15;5.90;;;0.90;;
38805;SDS011;25635;51.146;17.162;2023-02-18T07:17:42;4.00;;;1.00;;
38805;SDS011;25635;51.146;17.162;2023-02-18T07:20:08;6.90;;;1.50;;
38805;SDS011;25635;51.146;17.162;2023-02-18T07:22:34;3.40;;;0.80;;
38805;SDS011;25635;51.146;17.162;2023-02-18T07:25:00;5.60;;;1.30;;
38805;SDS011;25635;51.146;17.162;2023-02-18T07:27:26;7.50;;;1.10;;
38805;SDS011;25635;51.146;17.162;2023-02-18T07:29:53;5.00;;;1.10;;
38805;SDS011;25635;51.146;17.162;2023-02-18T07:32:19;4.20;;;1.10;;
38805;SDS011;25635;51.146;17.162;2023-02-18T07:34:45;4.70;;;1.10;;
38805;SDS011;25635;51.146;17.162;2023-02-18T07:37:11;5.70;;;1.00;;
38805;SDS011;25635;51.146;17.162;2023-02-18T07:39:41;7.40;;;1.20;;
38805;SDS011;25635;51.146;17.162;2023-02-18T07:42:08;4.30;;;1.60;;
38805;SDS011;25635;51.146;17.162;2023-02-18T07:44:36;4.70;;;1.20;;
38805;SDS011;25635;51.146;17.162;2023-02-18T07:47:03;4.50;;;1.40;;
38805;SDS011;25635;51.146;17.162;2023-02-18T07:49:30;5.30;;;1.30;;
38805;SDS011;25635;51.146;17.162;2023-02-18T07:51:56;9.50;;;2.70;;
38805;SDS011;25635;51.146;17.162;2023-02-18T07:54:23;6.00;;;1.40;;
38805;SDS011;25635;51.146;17.162;2023-02-18T07:56:49;5.20;;;1.20;;
38805;SDS011;25635;51.146;17.162;2023-02-18T07:59:15;5.10;;;1.00;;
38805;SDS011;25635;51.146;17.162;2023-02-18T08:01:41;7.00;;;1.30;;
38805;SDS011;25635;51.146;17.162;2023-02-18T08:04:08;5.20;;;1.40;;
38805;SDS011;25635;51.146;17.162;2023-02-18T08:06:36;4.90;;;1.00;;
38805;SDS011;25635;51.146;17.162;2023-02-18T08:09:04;5.30;;;1.60;;
38805;SDS011;25635;51.146;17.162;2023-02-18T08:11:31;4.80;;;1.20;;
38805;SDS011;25635;51.146;17.162;2023-02-18T08:13:58;4.90;;;1.10;;
38805;SDS011;25635;51.146;17.162;2023-02-18T08:16:25;4.70;;;1.00;;
38805;SDS011;25635;51.146;17.162;2023-02-18T08:18:53;6.10;;;1.10;;
38805;SDS011;25635;51.146;17.162;2023-02-18T08:21:20;6.10;;;1.20;;
38805;SDS011;25635;51.146;17.162;2023-02-18T08:23:48;5.60;;;1.30;;
38805;SDS011;25635;51.146;17.162;2023-02-18T08:26:14;4.40;;;1.20;;
38805;SDS011;25635;51.146;17.162;2023-02-18T08:28:41;3.80;;;1.10;;
38805;SDS011;25635;51.146;17.162;2023-02-18T08:31:19;5.70;;;1.10;;
38805;SDS011;25635;51.146;17.162;2023-02-18T08:33:48;6.20;;;1.20;;
38805;SDS011;25635;51.146;17.162;2023-02-18T08:36:14;5.20;;;1.00;;
38805;SDS011;25635;51.146;17.162;2023-02-18T08:38:40;4.90;;;0.90;;
38805;SDS011;25635;51.146;17.162;2023-02-18T08:41:07;4.10;;;1.00;;
38805;SDS011;25635;51.146;17.162;2023-02-18T08:43:34;4.60;;;0.90;;
38805;SDS011;25635;51.146;17.162;2023-02-18T08:46:01;7.30;;;1.40;;
38805;SDS011;25635;51.146;17.162;2023-02-18T08:48:28;4.40;;;1.10;;
38805;SDS011;25635;51.146;17.162;2023-02-18T08:50:54;6.00;;;1.20;;
38805;SDS011;25635;51.146;17.162;2023-02-18T08:53:20;5.90;;;1.50;;
38805;SDS011;25635;51.146;17.162;2023-02-18T08:55:47;9.10;;;2.00;;
38805;SDS011;25635;51.146;17.162;2023-02-18T08:58:13;4.60;;;1.40;;
38805;SDS011;25635;51.146;17.162;2023-02-18T09:00:40;4.00;;;0.90;;
38805;SDS011;25635;51.146;17.162;2023-02-18T09:03:10;3.80;;;0.90;;
38805;SDS011;25635;51.146;17.162;2023-02-18T09:05:38;4.70;;;0.80;;
38805;SDS011;25635;51.146;17.162;2023-02-18T09:08:05;3.80;;;0.80;;
38805;SDS011;25635;51.146;17.162;2023-02-18T09:10:31;3.40;;;0.90;;
38805;SDS011;25635;51.146;17.162;2023-02-18T09:12:57;4.70;;;0.90;;
38805;SDS011;25635;51.146;17.162;2023-02-18T09:15:23;5.30;;;1.10;;
38805;SDS011;25635;51.146;17.162;2023-02-18T09:17:49;2.80;;;0.80;;
38805;SDS011;25635;51.146;17.162;2023-02-18T09:20:15;9.80;;;4.30;;
38805;SDS011;25635;51.146;17.162;2023-02-18T09:22:41;4.50;;;1.10;;
38805;SDS011;25635;51.146;17.162;2023-02-18T09:25:08;6.00;;;1.00;;
38805;SDS011;25635;51.146;17.162;2023-02-18T09:27:34;4.70;;;1.20;;
38805;SDS011;25635;51.146;17.162;2023-02-18T09:30:00;2.00;;;0.70;;
38805;SDS011;25635;51.146;17.162;2023-02-18T09:32:27;4.50;;;0.70;;
38805;SDS011;25635;51.146;17.162;2023-02-18T09:34:53;6.30;;;1.30;;
38805;SDS011;25635;51.146;17.162;2023-02-18T09:37:19;4.50;;;1.10;;
38805;SDS011;25635;51.146;17.162;2023-02-18T09:39:56;4.30;;;1.40;;
38805;SDS011;25635;51.146;17.162;2023-02-18T09:42:31;4.40;;;1.00;;
38805;SDS011;25635;51.146;17.162;2023-02-18T09:45:01;5.10;;;1.10;;
38805;SDS011;25635;51.146;17.162;2023-02-18T09:47:35;5.00;;;1.00;;
38805;SDS011;25635;51.146;17.162;2023-02-18T09:50:15;5.90;;;1.40;;
38805;SDS011;25635;51.146;17.162;2023-02-18T09:52:58;5.80;;;1.30;;
38805;SDS011;25635;51.146;17.162;2023-02-18T09:55:31;5.30;;;1.40;;
38805;SDS011;25635;51.146;17.162;2023-02-18T09:58:02;4.70;;;1.60;;
38805;SDS011;25635;51.146;17.162;2023-02-18T10:00:36;4.70;;;1.40;;
38805;SDS011;25635;51.146;17.162;2023-02-18T10:03:06;7.10;;;1.80;;
38805;SDS011;25635;51.146;17.162;2023-02-18T10:05:35;5.70;;;1.40;;
38805;SDS011;25635;51.146;17.162;2023-02-18T10:08:03;4.60;;;0.90;;
38805;SDS011;25635;51.146;17.162;2023-02-18T10:13:06;3.70;;;0.90;;
38805;SDS011;25635;51.146;17.162;2023-02-18T10:15:43;3.60;;;1.10;;
38805;SDS011;25635;51.146;17.162;2023-02-18T10:18:24;5.10;;;1.30;;
38805;SDS011;25635;51.146;17.162;2023-02-18T10:21:18;5.80;;;1.10;;
38805;SDS011;25635;51.146;17.162;2023-02-18T10:23:50;3.90;;;1.10;;
38805;SDS011;25635;51.146;17.162;2023-02-18T10:26:25;3.60;;;1.10;;
38805;SDS011;25635;51.146;17.162;2023-02-18T10:28:53;9.30;;;3.50;;
38805;SDS011;25635;51.146;17.162;2023-02-18T10:31:42;10.40;;;4.80;;
38805;SDS011;25635;51.146;17.162;2023-02-18T10:34:33;7.50;;;2.90;;
38805;SDS011;25635;51.146;17.162;2023-02-18T10:37:27;7.40;;;2.90;;
38805;SDS011;25635;51.146;17.162;2023-02-18T10:42:44;7.60;;;2.80;;
38805;SDS011;25635;51.146;17.162;2023-02-18T10:51:14;5.90;;;1.80;;
38805;SDS011;25635;51.146;17.162;2023-02-18T10:53:43;6.20;;;2.10;;
38805;SDS011;25635;51.146;17.162;2023-02-18T10:56:30;4.60;;;1.80;;
38805;SDS011;25635;51.146;17.162;2023-02-18T10:59:09;8.30;;;2.10;;
38805;SDS011;25635;51.146;17.162;2023-02-18T11:01:38;6.80;;;1.90;;
38805;SDS011;25635;51.146;17.162;2023-02-18T11:04:09;6.50;;;1.80;;
38805;SDS011;25635;51.146;17.162;2023-02-18T11:06:40;4.90;;;1.50;;
38805;SDS011;25635;51.146;17.162;2023-02-18T11:09:25;6.50;;;2.20;;
38805;SDS011;25635;51.146;17.162;2023-02-18T11:12:54;6.40;;;2.00;;
38805;SDS011;25635;51.146;17.162;2023-02-18T11:17:41;21.30;;;10.90;;
38805;SDS011;25635;51.146;17.162;2023-02-18T11:22:57;6.20;;;2.40;;
38805;SDS011;25635;51.146;17.162;2023-02-18T11:25:36;6.50;;;2.40;;
38805;SDS011;25635;51.146;17.162;2023-02-18T11:28:05;6.90;;;2.40;;
38805;SDS011;25635;51.146;17.162;2023-02-18T11:30:54;7.80;;;2.00;;
38805;SDS011;25635;51.146;17.162;2023-02-18T11:35:49;6.90;;;2.40;;
38805;SDS011;25635;51.146;17.162;2023-02-18T11:38:20;9.00;;;2.40;;
38805;SDS011;25635;51.146;17.162;2023-02-18T11:40:54;9.80;;;2.60;;
38805;SDS011;25635;51.146;17.162;2023-02-18T11:43:22;8.20;;;2.40;;
38805;SDS011;25635;51.146;17.162;2023-02-18T11:46:07;7.40;;;2.30;;
38805;SDS011;25635;51.146;17.162;2023-02-18T11:48:38;10.60;;;2.60;;
38805;SDS011;25635;51.146;17.162;2023-02-18T11:51:11;9.10;;;2.90;;
38805;SDS011;25635;51.146;17.162;2023-02-18T11:54:05;7.90;;;2.60;;
38805;SDS011;25635;51.146;17.162;2023-02-18T11:56:59;9.50;;;4.40;;
38805;SDS011;25635;51.146;17.162;2023-02-18T11:59:28;9.70;;;3.70;;
38805;SDS011;25635;51.146;17.162;2023-02-18T12:04:40;9.60;;;3.70;;
38805;SDS011;25635;51.146;17.162;2023-02-18T12:09:45;11.30;;;5.00;;
38805;SDS011;25635;51.146;17.162;2023-02-18T12:12:22;11.90;;;6.00;;
38805;SDS011;25635;51.146;17.162;2023-02-18T12:14:49;10.30;;;4.80;;
38805;SDS011;25635;51.146;17.162;2023-02-18T12:17:22;13.70;;;5.40;;
38805;SDS011;25635;51.146;17.162;2023-02-18T12:22:42;19.80;;;8.60;;
38805;SDS011;25635;51.146;17.162;2023-02-18T12:31:20;22.80;;;9.50;;
38805;SDS011;25635;51.146;17.162;2023-02-18T12:33:54;17.10;;;7.20;;
38805;SDS011;25635;51.146;17.162;2023-02-18T12:42:21;9.50;;;3.90;;
38805;SDS011;25635;51.146;17.162;2023-02-18T12:53:03;9.40;;;4.30;;
38805;SDS011;25635;51.146;17.162;2023-02-18T13:03:47;13.20;;;6.20;;
38805;SDS011;25635;51.146;17.162;2023-02-18T13:09:46;15.50;;;7.80;;
38805;SDS011;25635;51.146;17.162;2023-02-18T13:12:20;13.70;;;6.10;;
38805;SDS011;25635;51.146;17.162;2023-02-18T13:15:12;11.40;;;5.60;;
38805;SDS011;25635;51.146;17.162;2023-02-18T13:17:41;12.30;;;5.50;;
38805;SDS011;25635;51.146;17.162;2023-02-18T13:22:57;11.30;;;4.90;;
38805;SDS011;25635;51.146;17.162;2023-02-18T13:25:23;11.60;;;5.20;;
38805;SDS011;25635;51.146;17.162;2023-02-18T13:36:27;13.30;;;7.00;;
38805;SDS011;25635;51.146;17.162;2023-02-18T13:41:27;13.70;;;7.30;;
38805;SDS011;25635;51.146;17.162;2023-02-18T13:43:53;12.10;;;6.30;;
38805;SDS011;25635;51.146;17.162;2023-02-18T13:46:20;13.70;;;7.40;;
38805;SDS011;25635;51.146;17.162;2023-02-18T13:54:08;14.00;;;7.50;;
38805;SDS011;25635;51.146;17.162;2023-02-18T13:56:39;15.00;;;7.40;;
38805;SDS011;25635;51.146;17.162;2023-02-18T13:59:10;14.40;;;8.40;;
38805;SDS011;25635;51.146;17.162;2023-02-18T14:01:44;16.70;;;11.20;;
38805;SDS011;25635;51.146;17.162;2023-02-18T14:10:01;16.00;;;9.00;;
38805;SDS011;25635;51.146;17.162;2023-02-18T14:12:39;17.20;;;12.00;;
38805;SDS011;25635;51.146;17.162;2023-02-18T14:23:10;24.80;;;14.20;;
38805;SDS011;25635;51.146;17.162;2023-02-18T14:25:38;26.40;;;14.10;;
38805;SDS011;25635;51.146;17.162;2023-02-18T14:31:05;47.80;;;22.60;;
38805;SDS011;25635;51.146;17.162;2023-02-18T14:45:28;45.50;;;21.90;;
38805;SDS011;25635;51.146;17.162;2023-02-18T14:50:43;52.30;;;24.30;;
38805;SDS011;25635;51.146;17.162;2023-02-18T14:53:14;31.30;;;17.10;;
38805;SDS011;25635;51.146;17.162;2023-02-18T14:55:48;49.30;;;25.20;;
38805;SDS011;25635;51.146;17.162;2023-02-18T15:00:46;26.50;;;14.20;;
38805;SDS011;25635;51.146;17.162;2023-02-18T15:03:13;21.70;;;12.80;;
38805;SDS011;25635;51.146;17.162;2023-02-18T15:05:41;29.50;;;16.60;;
38805;SDS011;25635;51.146;17.162;2023-02-18T15:08:21;19.40;;;11.20;;
38805;SDS011;25635;51.146;17.162;2023-02-18T15:10:56;16.90;;;9.10;;
38805;SDS011;25635;51.146;17.162;2023-02-18T15:13:26;23.00;;;13.30;;
38805;SDS011;25635;51.146;17.162;2023-02-18T15:15:58;38.70;;;22.40;;
38805;SDS011;25635;51.146;17.162;2023-02-18T15:18:31;19.70;;;10.80;;
38805;SDS011;25635;51.146;17.162;2023-02-18T15:21:05;23.20;;;13.80;;
38805;SDS011;25635;51.146;17.162;2023-02-18T15:23:34;17.00;;;9.70;;
38805;SDS011;25635;51.146;17.162;2023-02-18T15:26:03;17.80;;;10.20;;
38805;SDS011;25635;51.146;17.162;2023-02-18T15:28:31;19.50;;;9.80;;
38805;SDS011;25635;51.146;17.162;2023-02-18T15:30:59;16.50;;;8.80;;
38805;SDS011;25635;51.146;17.162;2023-02-18T15:33:27;13.80;;;7.30;;
38805;SDS011;25635;51.146;17.162;2023-02-18T15:36:01;13.00;;;7.40;;
38805;SDS011;25635;51.146;17.162;2023-02-18T15:38:30;16.20;;;7.80;;
38805;SDS011;25635;51.146;17.162;2023-02-18T15:40:57;12.20;;;5.40;;
38805;SDS011;25635;51.146;17.162;2023-02-18T15:43:24;9.70;;;4.60;;
38805;SDS011;25635;51.146;17.162;2023-02-18T15:45:55;10.40;;;4.00;;
38805;SDS011;25635;51.146;17.162;2023-02-18T15:48:26;5.40;;;2.60;;
38805;SDS011;25635;51.146;17.162;2023-02-18T15:50:54;5.70;;;2.40;;
38805;SDS011;25635;51.146;17.162;2023-02-18T15:53:22;6.60;;;3.40;;
38805;SDS011;25635;51.146;17.162;2023-02-18T15:55:51;5.60;;;2.80;;
38805;SDS011;25635;51.146;17.162;2023-02-18T15:58:22;8.10;;;3.10;;
38805;SDS011;25635;51.146;17.162;2023-02-18T16:00:54;6.30;;;2.70;;
38805;SDS011;25635;51.146;17.162;2023-02-18T16:03:26;7.50;;;3.30;;
38805;SDS011;25635;51.146;17.162;2023-02-18T16:06:10;5.60;;;2.30;;
38805;SDS011;25635;51.146;17.162;2023-02-18T16:08:58;4.40;;;1.90;;
38805;SDS011;25635;51.146;17.162;2023-02-18T16:11:34;3.90;;;1.90;;
38805;SDS011;25635;51.146;17.162;2023-02-18T16:14:05;4.40;;;2.10;;
38805;SDS011;25635;51.146;17.162;2023-02-18T16:16:32;5.40;;;2.60;;
38805;SDS011;25635;51.146;17.162;2023-02-18T16:19:00;4.20;;;1.60;;
38805;SDS011;25635;51.146;17.162;2023-02-18T16:21:31;4.50;;;1.90;;
38805;SDS011;25635;51.146;17.162;2023-02-18T16:24:03;3.70;;;1.50;;
38805;SDS011;25635;51.146;17.162;2023-02-18T16:26:52;3.80;;;1.80;;
38805;SDS011;25635;51.146;17.162;2023-02-18T16:29:26;4.00;;;1.50;;
38805;SDS011;25635;51.146;17.162;2023-02-18T16:32:00;3.80;;;1.40;;
38805;SDS011;25635;51.146;17.162;2023-02-18T16:34:27;3.30;;;1.30;;
38805;SDS011;25635;51.146;17.162;2023-02-18T16:37:01;3.60;;;1.50;;
38805;SDS011;25635;51.146;17.162;2023-02-18T16:39:54;3.70;;;1.60;;
38805;SDS011;25635;51.146;17.162;2023-02-18T16:42:20;5.30;;;2.20;;
38805;SDS011;25635;51.146;17.162;2023-02-18T16:44:46;7.60;;;2.80;;
38805;SDS011;25635;51.146;17.162;2023-02-18T16:47:15;7.30;;;3.40;;
38805;SDS011;25635;51.146;17.162;2023-02-18T16:49:46;7.80;;;3.60;;
38805;SDS011;25635;51.146;17.162;2023-02-18T16:52:14;8.30;;;3.30;;
38805;SDS011;25635;51.146;17.162;2023-02-18T16:54:43;5.40;;;2.50;;
38805;SDS011;25635;51.146;17.162;2023-02-18T16:57:09;6.50;;;2.40;;
38805;SDS011;25635;51.146;17.162;2023-02-18T16:59:35;5.90;;;2.90;;
38805;SDS011;25635;51.146;17.162;2023-02-18T17:02:01;4.30;;;2.00;;
38805;SDS011;25635;51.146;17.162;2023-02-18T17:04:28;3.50;;;1.40;;
38805;SDS011;25635;51.146;17.162;2023-02-18T17:06:54;5.10;;;1.40;;
38805;SDS011;25635;51.146;17.162;2023-02-18T17:09:21;3.60;;;1.20;;
38805;SDS011;25635;51.146;17.162;2023-02-18T17:11:48;3.30;;;1.10;;
38805;SDS011;25635;51.146;17.162;2023-02-18T17:14:17;3.90;;;1.20;;
38805;SDS011;25635;51.146;17.162;2023-02-18T17:16:46;3.50;;;1.30;;
38805;SDS011;25635;51.146;17.162;2023-02-18T17:19:13;2.50;;;1.10;;
38805;SDS011;25635;51.146;17.162;2023-02-18T17:21:39;3.40;;;1.30;;
38805;SDS011;25635;51.146;17.162;2023-02-18T17:24:05;3.50;;;1.30;;